Time;durP1;ratioP1;P1;durP2;ratioP2;P2;SDS_P1;SDS_P2;PMS_P1;PMS_P2;Temp;Humidity;BMP_temperature;BMP_pressure;BME280_temperature;BME280_humidity;BME280_pressure;Samples;Min_cycle;Max_cycle;Signal;HPM_P1;HPM_P2
2021/09/10 00:01:12;;;;;;;17.77;12.60;;;;;;;10.90;100.00;100754.56;1641818;85;21137;-65
2021/09/10 00:03:39;;;;;;;23.30;13.83;;;;;;;10.80;100.00;100754.48;1638874;85;20990;-65
2021/09/10 00:06:06;;;;;;;20.57;13.55;;;;;;;10.73;100.00;100749.64;1642247;85;21015;-66
2021/09/10 00:08:32;;;;;;;20.55;13.40;;;;;;;10.67;100.00;100748.52;1641245;85;22077;-65
2021/09/10 00:11:01;;;;;;;23.90;13.03;;;;;;;10.60;100.00;100744.96;1642192;85;21574;-66
2021/09/10 00:13:29;;;;;;;21.20;12.82;;;;;;;10.55;100.00;100745.48;1641730;85;21660;-65
2021/09/10 00:15:55;;;;;;;18.35;12.20;;;;;;;10.50;100.00;100741.77;1642146;85;21483;-65
2021/09/10 00:18:22;;;;;;;20.08;13.10;;;;;;;10.48;100.00;100740.12;1642036;85;20950;-65
2021/09/10 00:20:51;;;;;;;20.82;12.33;;;;;;;10.48;100.00;100734.92;1641651;85;21026;-65
2021/09/10 00:23:17;;;;;;;19.25;11.90;;;;;;;10.49;100.00;100738.33;1641833;85;21179;-65
2021/09/10 00:25:46;;;;;;;19.27;11.80;;;;;;;10.49;100.00;100738.33;1641883;85;21498;-65
2021/09/10 00:28:13;;;;;;;16.48;10.93;;;;;;;10.41;100.00;100738.37;1642138;85;20945;-66
2021/09/10 00:30:39;;;;;;;19.80;12.33;;;;;;;10.37;100.00;100736.59;1641575;85;21533;-65
2021/09/10 00:33:06;;;;;;;20.70;11.43;;;;;;;10.35;100.00;100741.19;1642212;85;21780;-65
2021/09/10 00:35:32;;;;;;;20.72;12.50;;;;;;;10.32;100.00;100744.12;1641840;85;21132;-65
2021/09/10 00:37:59;;;;;;;15.70;11.35;;;;;;;10.27;100.00;100741.22;1641471;85;21049;-65
2021/09/10 00:40:25;;;;;;;15.55;11.05;;;;;;;10.23;100.00;100743.81;1642575;85;20974;-65
2021/09/10 00:42:54;;;;;;;17.10;12.07;;;;;;;10.17;100.00;100743.98;1641327;85;21493;-65
2021/09/10 00:45:20;;;;;;;18.23;12.20;;;;;;;10.11;100.00;100743.83;1642305;85;21154;-66
2021/09/10 00:47:47;;;;;;;19.65;12.47;;;;;;;10.08;100.00;100742.39;1641417;85;20982;-65
2021/09/10 00:50:13;;;;;;;18.70;11.97;;;;;;;10.06;100.00;100737.83;1627186;86;21116;-65
2021/09/10 00:52:40;;;;;;;18.87;12.73;;;;;;;10.07;100.00;100734.23;1641936;85;21023;-63
2021/09/10 00:55:07;;;;;;;20.23;13.13;;;;;;;10.13;100.00;100732.77;1626545;86;21045;-64
2021/09/10 00:57:33;;;;;;;19.05;13.45;;;;;;;10.16;100.00;100733.73;1642233;86;21152;-63
2021/09/10 01:00:00;;;;;;;28.10;17.40;;;;;;;10.12;100.00;100734.56;1641681;85;20903;-63
2021/09/10 01:02:26;;;;;;;20.57;13.95;;;;;;;10.11;100.00;100734.22;1641952;85;20955;-66
2021/09/10 01:04:54;;;;;;;19.57;13.08;;;;;;;10.11;100.00;100733.41;1641013;85;21064;-67
2021/09/10 01:07:24;;;;;;;20.12;12.65;;;;;;;10.08;100.00;100738.48;1642046;85;21191;-66
2021/09/10 01:09:50;;;;;;;20.77;12.28;;;;;;;10.03;100.00;100732.14;1641673;85;21146;-66
2021/09/10 01:12:17;;;;;;;19.02;12.80;;;;;;;9.99;100.00;100733.77;1641978;85;21017;-63
2021/09/10 01:14:43;;;;;;;20.05;13.88;;;;;;;9.95;100.00;100736.88;1642010;85;20998;-63
2021/09/10 01:17:10;;;;;;;19.95;13.32;;;;;;;9.95;100.00;100738.99;1641319;85;21099;-66
2021/09/10 01:19:38;;;;;;;21.50;14.18;;;;;;;9.88;100.00;100736.73;1641956;85;21152;-67
2021/09/10 01:22:06;;;;;;;20.60;13.62;;;;;;;9.85;100.00;100737.55;1641203;85;20944;-65
2021/09/10 01:24:36;;;;;;;20.88;13.28;;;;;;;9.82;100.00;100736.11;1642030;85;22318;-66
2021/09/10 01:27:04;;;;;;;22.32;13.98;;;;;;;9.85;100.00;100739.69;1641792;85;21551;-67
2021/09/10 01:29:32;;;;;;;21.07;13.55;;;;;;;9.85;100.00;100737.09;1641916;85;21418;-67
2021/09/10 01:31:59;;;;;;;19.00;13.25;;;;;;;9.88;100.00;100740.63;1642021;85;20978;-66
2021/09/10 01:34:25;;;;;;;19.62;12.90;;;;;;;9.87;100.00;100743.41;1641694;85;21065;-65
2021/09/10 01:36:52;;;;;;;21.15;13.08;;;;;;;9.86;100.00;100740.50;1642254;85;21076;-65
2021/09/10 01:39:18;;;;;;;19.40;12.85;;;;;;;9.83;100.00;100739.03;1640826;85;20935;-65
2021/09/10 01:41:44;;;;;;;20.43;12.90;;;;;;;9.83;100.00;100739.03;1642056;85;21104;-64
2021/09/10 01:44:11;;;;;;;19.62;13.30;;;;;;;9.85;100.00;100737.55;1641562;85;20950;-63
2021/09/10 01:46:40;;;;;;;19.57;12.63;;;;;;;9.82;100.00;100738.72;1632268;85;21151;-65
2021/09/10 01:49:06;;;;;;;24.67;15.68;;;;;;;9.76;100.00;100736.76;1641242;85;20891;-64
2021/09/10 01:51:33;;;;;;;20.23;14.35;;;;;;;9.69;100.00;100742.30;1641410;85;21069;-64
2021/09/10 01:54:01;;;;;;;20.72;13.35;;;;;;;9.60;100.00;100737.61;1641908;85;20958;-64
2021/09/10 01:56:27;;;;;;;22.58;14.47;;;;;;;9.57;100.00;100740.53;1641011;85;21548;-63
2021/09/10 01:58:56;;;;;;;25.02;15.15;;;;;;;9.60;100.00;100741.51;1642215;85;22087;-64
2021/09/10 02:01:29;;;;;;;30.10;16.27;;;;;;;9.64;100.00;100738.90;1641295;85;21062;-64
2021/09/10 02:03:57;;;;;;;30.23;16.95;;;;;;;9.70;100.00;100735.65;1641808;85;21126;-64
2021/09/10 02:06:24;;;;;;;26.55;17.00;;;;;;;9.78;100.00;100734.01;1641364;85;21010;-63
2021/09/10 02:08:52;;;;;;;26.20;14.95;;;;;;;9.81;100.00;100735.80;1641851;85;21631;-64
2021/09/10 02:11:18;;;;;;;26.85;16.48;;;;;;;9.82;100.00;100736.11;1641258;85;21138;-64
2021/09/10 02:13:45;;;;;;;26.95;16.15;;;;;;;9.79;100.00;100736.93;1641809;85;22271;-63
2021/09/10 02:16:13;;;;;;;25.62;15.45;;;;;;;9.75;100.00;100733.34;1641741;85;21013;-63
2021/09/10 02:18:40;;;;;;;24.05;15.50;;;;;;;9.80;100.00;100734.64;1641871;85;21052;-66
2021/09/10 02:21:08;;;;;;;25.90;16.57;;;;;;;9.81;100.00;100733.66;1641702;85;20958;-67
2021/09/10 02:23:36;;;;;;;28.00;17.57;;;;;;;9.82;100.00;100735.30;1641925;85;21603;-66
2021/09/10 02:26:03;;;;;;;27.95;15.60;;;;;;;9.80;100.00;100736.75;1641856;85;21440;-63
2021/09/10 02:28:30;;;;;;;29.57;17.67;;;;;;;9.78;100.00;100734.82;1641509;85;20927;-64
2021/09/10 02:30:57;;;;;;;24.63;15.55;;;;;;;9.75;100.00;100727.33;1641826;85;21121;-64
2021/09/10 02:33:24;;;;;;;24.15;15.45;;;;;;;9.67;100.00;100724.26;1641533;85;21414;-64
2021/09/10 02:35:50;;;;;;;28.57;15.45;;;;;;;9.64;100.00;100725.08;1642077;85;21161;-66
2021/09/10 02:38:17;;;;;;;21.57;14.58;;;;;;;9.58;100.00;100723.92;1641314;85;20936;-64
2021/09/10 02:40:44;;;;;;;24.27;13.83;;;;;;;9.56;100.00;100723.30;1641908;85;20997;-62
2021/09/10 02:43:10;;;;;;;23.27;13.65;;;;;;;9.51;100.00;100717.78;1641422;85;21063;-63
2021/09/10 02:45:37;;;;;;;22.20;13.93;;;;;;;9.52;100.00;100713.39;1641643;85;21582;-64
2021/09/10 02:48:04;;;;;;;24.00;13.95;;;;;;;9.47;100.00;100717.76;1641681;85;21083;-63
2021/09/10 02:50:30;;;;;;;22.40;14.95;;;;;;;9.47;100.00;100720.36;1640732;85;21010;-63
2021/09/10 02:52:58;;;;;;;24.47;14.25;;;;;;;9.47;100.00;100716.45;1641645;85;21184;-63
2021/09/10 02:55:25;;;;;;;24.32;16.02;;;;;;;9.42;100.00;100719.56;1641528;85;20962;-63
2021/09/10 02:57:51;;;;;;;22.27;14.50;;;;;;;9.45;100.00;100726.23;1641377;85;21546;-63
2021/09/10 03:00:20;;;;;;;24.90;14.55;;;;;;;9.45;100.00;100719.23;1648450;81;21483;-63
2021/09/10 03:02:47;;;;;;;20.20;13.98;;;;;;;9.47;100.00;100720.36;1628649;86;20976;-64
2021/09/10 03:05:14;;;;;;;20.77;13.85;;;;;;;9.44;100.00;100725.42;1679549;82;21114;-63
2021/09/10 03:07:42;;;;;;;18.70;12.82;;;;;;;9.46;100.00;100720.86;1706076;82;20951;-65
2021/09/10 03:10:09;;;;;;;23.83;13.78;;;;;;;9.48;100.00;100716.31;1685477;83;21548;-63
2021/09/10 03:12:39;;;;;;;19.12;13.35;;;;;;;9.50;100.00;100716.14;1697215;83;21015;-64
2021/09/10 03:15:09;;;;;;;19.15;13.43;;;;;;;9.53;100.00;100713.21;1687693;82;21520;-64
2021/09/10 03:17:36;;;;;;;18.82;13.13;;;;;;;9.69;100.00;100718.37;1701685;82;20964;-64
2021/09/10 03:20:04;;;;;;;20.17;12.82;;;;;;;9.96;100.00;100711.99;1715272;82;21020;-64
2021/09/10 03:22:32;;;;;;;19.98;11.90;;;;;;;10.35;100.00;100710.41;1722341;81;21090;-65
2021/09/10 03:24:59;;;;;;;17.15;12.20;;;;;;;10.83;100.00;100707.98;1723036;82;21249;-65
2021/09/10 03:27:27;;;;;;;22.57;13.10;;;;;;;11.46;100.00;100704.72;1710706;82;21060;-64
2021/09/10 03:29:54;;;;;;;23.73;13.93;;;;;;;12.16;100.00;100708.75;1731992;82;21228;-65
2021/09/10 03:32:22;;;;;;;23.87;15.37;;;;;;;12.88;100.00;100703.51;1711416;82;21279;-65
2021/09/10 03:34:48;;;;;;;30.80;20.23;;;;;;;13.51;100.00;100699.70;1688711;82;21240;-65
2021/09/10 03:37:16;;;;;;;30.37;21.77;;;;;;;14.16;100.00;100700.25;1712530;82;21192;-65
2021/09/10 03:39:43;;;;;;;32.93;23.60;;;;;;;14.80;100.00;100698.55;1696029;82;21331;-64
2021/09/10 03:42:10;;;;;;;31.43;23.23;;;;;;;15.43;100.00;100702.63;1723408;82;21727;-64
2021/09/10 03:44:36;;;;;;;34.00;23.23;;;;;;;16.15;100.00;100700.86;1719536;82;21691;-66
2021/09/10 03:47:05;;;;;;;32.37;24.00;;;;;;;16.89;100.00;100692.34;1718676;81;21090;-65
2021/09/10 03:49:36;;;;;;;27.60;19.83;;;;;;;17.65;100.00;100693.94;1701493;82;21211;-65
2021/09/10 03:52:05;;;;;;;24.27;17.43;;;;;;;18.38;90.70;100691.78;1720825;82;20993;-63
2021/09/10 03:54:31;;;;;;;27.53;16.50;;;;;;;19.18;76.54;100684.80;1705881;82;21005;-64
2021/09/10 03:56:57;;;;;;;18.70;14.03;;;;;;;19.80;66.98;100688.80;1715608;82;20991;-64
2021/09/10 03:59:24;;;;;;;16.30;13.10;;;;;;;20.41;59.39;100688.66;1694440;81;21103;-64
2021/09/10 04:01:51;;;;;;;17.43;13.83;;;;;;;21.01;53.92;100688.11;1740808;80;21143;-65
2021/09/10 04:04:17;;;;;;;17.10;13.63;;;;;;;21.49;50.12;100679.30;1737157;80;20944;-64
2021/09/10 04:06:44;;;;;;;21.23;14.47;;;;;;;21.85;47.99;100682.66;1757860;80;21059;-64
2021/09/10 04:09:11;;;;;;;20.23;14.93;;;;;;;22.18;46.49;100686.26;1746510;80;21062;-64
2021/09/10 04:11:40;;;;;;;23.13;17.43;;;;;;;22.42;45.69;100689.95;1749796;79;21023;-64
2021/09/10 04:14:08;;;;;;;24.10;17.70;;;;;;;22.66;45.05;100691.78;1752590;80;20968;-64
2021/09/10 04:16:36;;;;;;;25.27;16.63;;;;;;;23.06;43.74;100691.31;1760685;80;21051;-65
2021/09/10 04:19:04;;;;;;;21.17;15.57;;;;;;;23.44;43.06;100691.55;1764789;80;21115;-65
2021/09/10 04:21:30;;;;;;;24.00;16.87;;;;;;;23.85;42.29;100690.45;1757048;80;21016;-65
2021/09/10 04:23:58;;;;;;;20.83;14.57;;;;;;;24.30;41.26;100688.98;1729547;82;21077;-65
2021/09/10 04:26:25;;;;;;;19.10;14.10;;;;;;;24.72;40.15;100687.98;1734289;80;21142;-64
2021/09/10 04:28:52;;;;;;;18.32;14.68;;;;;;;25.14;38.79;100681.59;1749831;80;21322;-64
2021/09/10 04:31:19;;;;;;;16.20;13.30;;;;;;;25.60;37.19;100688.93;1737558;80;21604;-64
2021/09/10 04:33:46;;;;;;;17.00;13.13;;;;;;;25.98;36.06;100676.52;1737118;80;20904;-64
2021/09/10 04:36:15;;;;;;;19.90;13.88;;;;;;;26.33;35.57;100672.31;1744588;80;21039;-62
2021/09/10 04:38:43;;;;;;;15.45;12.47;;;;;;;26.76;35.56;100679.22;1725724;80;21185;-64
2021/09/10 04:41:10;;;;;;;14.28;11.70;;;;;;;27.27;35.07;100673.94;1746143;80;20944;-61
2021/09/10 04:43:39;;;;;;;14.05;11.53;;;;;;;27.72;34.27;100675.28;1730261;80;21042;-63
2021/09/10 04:46:06;;;;;;;19.02;12.15;;;;;;;28.10;33.45;100669.44;1762312;80;20948;-63
2021/09/10 04:48:33;;;;;;;21.27;12.00;;;;;;;28.39;32.91;100667.72;1736155;80;21135;-62
2021/09/10 04:51:00;;;;;;;16.75;10.88;;;;;;;28.64;32.43;100668.66;1747999;80;21151;-62
2021/09/10 04:53:26;;;;;;;19.02;12.40;;;;;;;28.92;31.96;100669.50;1752342;80;20986;-61
2021/09/10 04:55:53;;;;;;;18.50;11.55;;;;;;;29.11;31.36;100673.48;1759417;81;21671;-61
2021/09/10 04:58:21;;;;;;;14.50;11.28;;;;;;;29.13;30.92;100670.49;1754219;80;21117;-61
2021/09/10 05:00:48;;;;;;;16.25;11.10;;;;;;;28.99;30.62;100669.16;1753044;80;21788;-61
2021/09/10 05:03:14;;;;;;;16.80;10.85;;;;;;;28.96;30.71;100673.73;1727346;81;21561;-66
2021/09/10 05:05:41;;;;;;;16.30;10.98;;;;;;;29.01;30.39;100668.30;1710873;82;21008;-64
2021/09/10 05:08:08;;;;;;;13.98;11.73;;;;;;;29.05;29.89;100670.09;1720405;82;21058;-63
2021/09/10 05:10:36;;;;;;;17.73;13.60;;;;;;;29.01;29.69;100668.30;1713074;82;21611;-63
2021/09/10 05:13:02;;;;;;;20.92;15.20;;;;;;;29.14;29.27;100660.03;1734118;82;21024;-61
2021/09/10 05:15:29;;;;;;;22.30;14.80;;;;;;;29.28;28.47;100658.94;1725364;81;21139;-62
2021/09/10 05:17:57;;;;;;;19.50;14.50;;;;;;;29.19;28.28;100667.97;1726944;81;20936;-63
2021/09/10 05:20:23;;;;;;;17.82;15.72;;;;;;;28.99;28.10;100659.77;1733052;81;21438;-62
2021/09/10 05:22:54;;;;;;;21.85;16.07;;;;;;;28.59;28.52;100662.02;1735758;82;21000;-63
2021/09/10 05:25:23;;;;;;;20.05;16.32;;;;;;;28.06;29.07;100654.23;1722525;82;21119;-62
2021/09/10 05:27:50;;;;;;;23.62;16.73;;;;;;;27.56;29.51;100659.95;1722282;82;21117;-65
2021/09/10 05:30:18;;;;;;;22.27;17.02;;;;;;;27.02;30.25;100665.08;1731232;82;20963;-63
2021/09/10 05:32:44;;;;;;;23.45;17.80;;;;;;;26.49;30.88;100664.20;1729245;81;20960;-63
2021/09/10 05:35:11;;;;;;;25.88;17.50;;;;;;;25.98;31.55;100672.51;1727137;81;21007;-63
2021/09/10 05:37:39;;;;;;;22.62;17.75;;;;;;;25.48;32.83;100677.77;1730813;81;21415;-61
2021/09/10 05:40:09;;;;;;;24.70;17.57;;;;;;;25.11;33.53;100672.78;1737313;81;21139;-64
2021/09/10 05:42:37;;;;;;;21.17;16.23;;;;;;;24.86;34.08;100674.94;1735347;81;21136;-64
2021/09/10 05:45:07;;;;;;;22.57;16.80;;;;;;;24.61;34.61;100675.19;1737949;81;21004;-64
2021/09/10 05:47:34;;;;;;;24.40;17.30;;;;;;;24.50;34.98;100674.37;1731251;81;21078;-64
2021/09/10 05:50:00;;;;;;;22.83;16.23;;;;;;;24.46;35.00;100677.84;1735413;81;21537;-63
2021/09/10 05:52:29;;;;;;;20.93;16.17;;;;;;;24.32;35.28;100678.88;1734021;81;21511;-64
2021/09/10 05:54:56;;;;;;;27.90;17.73;;;;;;;24.28;35.98;100684.44;1730288;81;21071;-66
2021/09/10 05:57:23;;;;;;;23.97;17.87;;;;;;;24.26;36.20;100679.92;1720595;81;21526;-66
2021/09/10 05:59:49;;;;;;;24.40;16.70;;;;;;;24.23;36.38;100681.77;1715590;81;21066;-64
2021/09/10 06:02:17;;;;;;;23.60;16.50;;;;;;;24.12;36.84;100680.15;1712833;82;21043;-64
2021/09/10 06:04:44;;;;;;;18.07;14.30;;;;;;;24.22;37.13;100683.64;1712740;82;21200;-64
2021/09/10 06:07:11;;;;;;;20.73;17.23;;;;;;;24.30;36.68;100681.53;1709832;82;21564;-65
2021/09/10 06:09:39;;;;;;;22.07;15.30;;;;;;;24.35;36.78;100682.32;1716735;82;20957;-63
2021/09/10 06:12:07;;;;;;;18.97;13.80;;;;;;;24.49;36.27;100677.32;1718572;82;21087;-63
2021/09/10 06:14:35;;;;;;;21.20;13.87;;;;;;;24.73;35.33;100677.59;1718423;82;21499;-63
2021/09/10 06:17:03;;;;;;;22.30;13.50;;;;;;;24.93;34.83;100678.92;1716988;82;20893;-63
2021/09/10 06:19:33;;;;;;;19.53;13.10;;;;;;;25.19;34.01;100670.39;1718298;82;21020;-64
2021/09/10 06:22:00;;;;;;;21.90;14.10;;;;;;;25.54;33.64;100674.56;1714414;82;21167;-64
2021/09/10 06:24:27;;;;;;;22.48;14.70;;;;;;;25.84;33.62;100670.45;1713880;82;21005;-64
2021/09/10 06:26:56;;;;;;;17.55;12.88;;;;;;;26.25;33.33;100665.40;1717456;82;21026;-64
2021/09/10 06:29:24;;;;;;;18.05;13.68;;;;;;;26.73;33.16;100669.08;1721211;82;21141;-64
2021/09/10 06:31:51;;;;;;;17.75;13.90;;;;;;;27.25;32.09;100656.84;1715743;81;21142;-65
2021/09/10 06:34:25;;;;;;;18.17;13.15;;;;;;;27.94;31.12;100660.57;1716247;82;21083;-65
2021/09/10 06:36:52;;;;;;;18.85;13.28;;;;;;;28.74;30.83;100662.31;1721868;82;21031;-65
2021/09/10 06:39:20;;;;;;;18.27;14.38;;;;;;;29.56;29.46;100653.55;1724328;82;21126;-63
2021/09/10 06:41:47;;;;;;;17.77;15.68;;;;;;;30.17;28.15;100652.80;1720398;82;21111;-65
2021/09/10 06:44:15;;;;;;;24.60;16.40;;;;;;;30.76;26.95;100655.67;1717095;82;20878;-63
2021/09/10 06:46:42;;;;;;;18.62;14.33;;;;;;;31.17;26.46;100656.47;1722016;82;20991;-63
2021/09/10 06:49:09;;;;;;;17.55;14.83;;;;;;;31.56;25.79;100650.28;1709699;82;21523;-63
2021/09/10 06:51:36;;;;;;;20.52;15.93;;;;;;;31.94;24.99;100655.89;1724544;82;22337;-63
2021/09/10 06:54:03;;;;;;;17.02;13.75;;;;;;;32.20;24.43;100659.94;1721482;82;21082;-64
2021/09/10 06:56:31;;;;;;;15.78;13.25;;;;;;;32.49;24.18;100655.78;1722539;82;20933;-65
2021/09/10 06:58:58;;;;;;;16.40;12.07;;;;;;;32.84;23.71;100650.28;1722402;82;21918;-65
2021/09/10 07:01:25;;;;;;;14.07;9.83;;;;;;;33.16;23.45;100657.80;1716467;82;21634;-62
2021/09/10 07:03:53;;;;;;;16.48;11.57;;;;;;;33.51;22.84;100661.69;1713351;82;20989;-63
2021/09/10 07:06:22;;;;;;;16.12;11.12;;;;;;;33.75;22.82;100656.20;1751126;80;21822;-66
2021/09/10 07:08:50;;;;;;;15.43;11.28;;;;;;;33.96;22.49;100659.70;1747156;80;21066;-64
2021/09/10 07:11:18;;;;;;;15.03;9.58;;;;;;;34.24;22.07;100655.89;1754060;80;21059;-64
2021/09/10 07:13:46;;;;;;;11.33;10.03;;;;;;;34.58;21.96;100652.06;1748950;80;21122;-65
2021/09/10 07:16:14;;;;;;;14.03;10.00;;;;;;;34.90;21.63;100645.58;1745955;80;21486;-64
2021/09/10 07:18:42;;;;;;;12.73;9.50;;;;;;;35.22;21.10;100647.96;1751019;80;21138;-63
2021/09/10 07:21:10;;;;;;;13.50;9.10;;;;;;;35.42;21.31;100644.09;1745636;80;20995;-66
2021/09/10 07:23:36;;;;;;;14.47;9.13;;;;;;;35.58;21.21;100647.16;1743118;80;21091;-61
2021/09/10 07:26:03;;;;;;;11.18;8.03;;;;;;;35.81;20.84;100648.00;1709702;82;21577;-63
2021/09/10 07:28:32;;;;;;;14.23;7.92;;;;;;;36.08;19.96;100638.88;1743008;80;21565;-64
2021/09/10 07:30:59;;;;;;;13.13;8.98;;;;;;;36.00;19.92;100646.04;1750045;80;21135;-65
2021/09/10 07:33:26;;;;;;;14.58;8.48;;;;;;;35.92;19.78;100634.74;1757377;80;21355;-57
2021/09/10 07:41:42;;;;;;;11.95;9.28;;;;;;;36.17;19.60;100634.08;1660318;84;21054;-75
2021/09/10 07:44:09;;;;;;;10.58;8.58;;;;;;;36.05;19.88;100628.14;1668753;84;21751;-74
2021/09/10 07:46:36;;;;;;;14.20;9.90;;;;;;;35.99;20.33;100623.55;1669320;84;21085;-69
2021/09/10 07:49:02;;;;;;;12.00;8.53;;;;;;;36.06;20.21;100627.78;1664177;84;21093;-71
2021/09/10 07:51:28;;;;;;;10.95;8.38;;;;;;;36.16;19.49;100621.65;1657238;84;21014;-72
2021/09/10 07:53:56;;;;;;;17.25;8.75;;;;;;;36.35;19.33;100626.41;1684235;83;21131;-73
2021/09/10 07:56:24;;;;;;;11.78;8.23;;;;;;;36.58;19.34;100622.55;1706594;82;21143;-73
2021/09/10 07:58:50;;;;;;;10.38;7.85;;;;;;;36.61;19.23;100620.50;1668510;85;21086;-73
2021/09/10 08:01:17;;;;;;;9.65;7.05;;;;;;;36.58;18.97;100612.48;1678978;84;21521;-72
2021/09/10 08:03:44;;;;;;;8.25;6.92;;;;;;;36.64;18.77;100604.88;1698675;83;21582;-72
2021/09/10 08:06:12;;;;;;;10.82;6.90;;;;;;;36.65;18.47;100605.08;1662789;84;20980;-72
2021/09/10 08:08:39;;;;;;;10.18;6.53;;;;;;;36.58;18.48;100604.91;1678909;83;21162;-67
2021/09/10 08:11:06;;;;;;;9.55;6.67;;;;;;;36.72;18.45;100597.11;1696757;83;21100;-72
2021/09/10 08:13:33;;;;;;;10.13;6.25;;;;;;;36.91;18.36;100597.17;1695048;83;21144;-70
2021/09/10 08:15:59;;;;;;;8.85;7.15;;;;;;;37.21;17.87;100602.14;1681388;83;22161;-74
2021/09/10 08:18:26;;;;;;;11.55;6.72;;;;;;;37.38;17.56;100594.13;1687909;82;21124;-68
2021/09/10 08:20:56;;;;;;;8.45;6.28;;;;;;;37.06;17.98;100592.09;1712136;82;21157;-66
2021/09/10 08:23:23;;;;;;;9.68;6.45;;;;;;;36.72;17.64;100594.39;1722425;81;21068;-72
2021/09/10 08:25:51;;;;;;;9.38;5.90;;;;;;;36.39;18.29;100585.98;1719616;81;20999;-75
2021/09/10 08:28:33;;;;;;;9.10;5.50;;;;;;;36.04;18.61;100579.87;1727595;81;21066;-71
2021/09/10 08:31:00;;;;;;;8.73;5.75;;;;;;;36.04;18.71;100586.66;1733476;81;21117;-59
2021/09/10 08:33:27;;;;;;;9.73;5.90;;;;;;;36.30;18.07;100581.31;1733964;82;21093;-61
2021/09/10 08:35:53;;;;;;;6.72;5.35;;;;;;;36.52;17.91;100579.92;1732423;82;21101;-60
2021/09/10 08:38:19;;;;;;;12.75;6.50;;;;;;;36.57;17.74;100580.25;1729712;81;63909;-70
2021/09/10 08:40:47;;;;;;;6.22;5.28;;;;;;;36.52;18.50;100576.66;1709397;82;21558;-76
2021/09/10 08:43:14;;;;;;;5.67;4.80;;;;;;;36.74;18.40;100573.86;1706747;83;20990;-68
2021/09/10 08:45:43;;;;;;;6.40;4.70;;;;;;;36.95;17.98;100571.47;1705726;83;21669;-78
2021/09/10 08:48:10;;;;;;;13.20;5.10;;;;;;;37.15;17.71;100568.20;1704683;82;21055;-75
2021/09/10 08:50:37;;;;;;;6.85;5.25;;;;;;;37.37;17.52;100569.45;1704773;82;21036;-77
2021/09/10 08:53:05;;;;;;;6.97;5.45;;;;;;;37.54;17.48;100569.04;1706714;83;21012;-71
2021/09/10 08:55:32;;;;;;;6.85;5.55;;;;;;;37.64;17.08;100562.25;1694336;83;21051;-76
2021/09/10 08:57:58;;;;;;;9.03;5.40;;;;;;;37.62;17.03;100560.45;1702886;83;21210;-78
2021/09/10 09:00:33;;;;;;;7.37;5.83;;;;;;;37.40;16.92;100563.30;1712361;83;20944;-81
2021/09/10 09:03:04;;;;;;;8.75;6.80;;;;;;;36.92;17.20;100555.26;1713390;83;20937;-77
2021/09/10 09:05:31;;;;;;;7.83;6.33;;;;;;;36.51;17.79;100558.77;1712177;83;21463;-78
2021/09/10 09:08:17;;;;;;;10.35;6.87;;;;;;;35.96;18.09;100555.59;1706135;82;21091;-67
2021/09/10 09:11:03;;;;;;;7.92;6.37;;;;;;;35.33;18.46;100552.07;1704700;82;21699;-76
2021/09/10 09:17:31;;;;;;;8.70;6.37;;;;;;;34.58;19.36;100550.53;1704489;82;20991;-74
2021/09/10 09:20:24;;;;;;;7.75;6.35;;;;;;;34.50;19.78;100550.08;1611214;87;21051;-75
2021/09/10 09:23:06;;;;;;;16.42;6.95;;;;;;;35.09;19.29;100545.58;1614245;87;21126;-72
2021/09/10 09:25:45;;;;;;;8.60;6.12;;;;;;;35.54;19.25;100532.38;1619880;86;21154;-67
2021/09/10 09:28:27;;;;;;;8.53;6.10;;;;;;;35.69;19.33;100533.56;1630715;86;21034;-77
2021/09/10 09:31:01;;;;;;;6.45;5.15;;;;;;;35.50;19.40;100531.50;1639277;86;21011;-76
2021/09/10 09:33:33;;;;;;;7.47;5.37;;;;;;;35.31;20.03;100526.67;1617853;87;21584;-74
2021/09/10 09:36:02;;;;;;;9.78;5.53;;;;;;;35.39;19.67;100534.45;1621726;87;21616;-77
2021/09/10 09:38:32;;;;;;;9.73;5.85;;;;;;;35.70;19.37;100527.00;1613651;87;21121;-78
2021/09/10 09:41:04;;;;;;;8.30;6.20;;;;;;;36.02;19.01;100521.08;1602602;88;21113;-70
2021/09/10 09:43:36;;;;;;;6.80;5.65;;;;;;;36.14;18.33;100518.87;1640665;86;21420;-76
2021/09/10 09:46:06;;;;;;;7.28;5.97;;;;;;;35.98;18.31;100513.42;1611917;87;21134;-75
2021/09/10 09:48:36;;;;;;;7.17;5.85;;;;;;;35.87;18.71;100512.32;1598508;88;24969;-77
2021/09/10 09:51:02;;;;;;;7.50;6.58;;;;;;;35.75;19.02;100510.47;1617310;87;21799;-69
2021/09/10 09:53:29;;;;;;;21.97;7.87;;;;;;;35.49;18.85;100508.21;1613816;87;22463;-72
2021/09/10 09:55:55;;;;;;;9.95;6.20;;;;;;;35.03;19.27;100500.88;1611699;87;21339;-78
2021/09/10 09:58:22;;;;;;;8.15;6.28;;;;;;;34.81;19.63;100502.69;1610539;87;21102;-78
2021/09/10 10:00:48;;;;;;;9.75;5.90;;;;;;;34.80;19.50;100501.91;1608517;87;21116;-77
2021/09/10 10:03:15;;;;;;;9.65;6.25;;;;;;;34.99;19.58;100499.98;1607500;87;21169;-69
2021/09/10 10:06:02;;;;;;;9.43;5.25;;;;;;;35.30;19.19;100498.55;1591365;89;21358;-74
2021/09/10 10:08:46;;;;;;;7.90;6.08;;;;;;;35.56;19.06;100494.85;1617126;87;21017;-66
2021/09/10 10:11:23;;;;;;;7.70;6.17;;;;;;;35.82;18.42;100494.38;1614659;88;21615;-74
2021/09/10 10:14:00;;;;;;;9.70;6.28;;;;;;;35.96;18.08;100485.83;1603742;87;21510;-76
2021/09/10 10:16:45;;;;;;;7.72;5.80;;;;;;;35.64;18.68;100478.20;1603537;87;21398;-66
2021/09/10 10:19:26;;;;;;;6.87;6.00;;;;;;;35.49;19.02;100485.17;1599915;87;21125;-74
2021/09/10 10:22:06;;;;;;;7.25;6.20;;;;;;;35.24;19.03;100479.61;1612187;87;21090;-73
2021/09/10 10:24:43;;;;;;;7.12;5.55;;;;;;;35.13;18.83;100471.74;1601846;87;21126;-75
2021/09/10 10:27:34;;;;;;;13.30;11.75;;;;;;;35.07;19.01;100476.03;1603437;86;21001;-69
2021/09/10 10:30:20;;;;;;;11.55;9.45;;;;;;;35.15;19.51;100472.95;1615546;87;21038;-72
2021/09/10 10:32:49;;;;;;;14.05;12.28;;;;;;;35.32;19.40;100468.62;1615361;87;21516;-72
2021/09/10 10:35:30;;;;;;;9.03;6.65;;;;;;;35.40;19.39;100466.11;1614391;87;21077;-73
2021/09/10 10:38:11;;;;;;;8.38;6.67;;;;;;;35.45;19.25;100468.56;1615353;87;21045;-73
2021/09/10 10:40:47;;;;;;;8.35;6.10;;;;;;;35.42;19.40;100465.99;1615060;87;21093;-67
2021/09/10 10:43:27;;;;;;;6.80;5.53;;;;;;;35.64;19.27;100465.22;1614179;87;21598;-74
2021/09/10 10:46:07;;;;;;;;;;;;;;;35.72;18.52;100458.84;1618131;87;21089;-69
2021/09/10 10:48:44;;;;;;;8.28;5.37;;;;;;;35.54;18.45;100456.47;1614835;88;20354;-72
2021/09/10 10:51:21;;;;;;;6.78;5.97;;;;;;;35.39;18.73;100446.34;1613333;87;21649;-76
2021/09/10 10:53:56;;;;;;;7.62;6.08;;;;;;;35.12;19.56;100445.76;1613126;86;21061;-67
2021/09/10 10:56:32;;;;;;;22.67;7.45;;;;;;;35.24;19.23;100443.81;1594833;87;21175;-70
2021/09/10 10:59:21;;;;;;;10.15;6.30;;;;;;;35.42;19.23;100440.78;1610724;87;21045;-76
2021/09/10 11:02:25;;;;;;;10.95;5.90;;;;;;;35.57;19.58;100435.98;1614734;88;21497;-73
2021/09/10 11:05:13;;;;;;;6.37;5.33;;;;;;;35.74;19.38;100437.59;1607355;87;21041;-75
2021/09/10 11:07:42;;;;;;;7.40;5.42;;;;;;;35.52;19.27;100426.76;1613381;87;20974;-77
2021/09/10 11:10:15;;;;;;;7.12;5.42;;;;;;;35.05;19.19;100424.70;1613504;88;21169;-71
2021/09/10 11:12:45;;;;;;;8.73;5.70;;;;;;;34.55;19.53;100425.89;1593452;88;21321;-74
2021/09/10 11:15:25;;;;;;;7.17;5.90;;;;;;;34.28;20.34;100423.30;1603346;87;20977;-70
2021/09/10 11:18:07;;;;;;;7.30;5.85;;;;;;;34.38;20.46;100418.79;1608300;87;21098;-65
2021/09/10 11:20:46;;;;;;;6.67;5.10;;;;;;;34.58;20.48;100419.23;1617524;87;22050;-73
2021/09/10 11:23:18;;;;;;;7.62;5.20;;;;;;;34.70;19.84;100414.92;1607582;87;21817;-69
2021/09/10 11:25:48;;;;;;;8.93;5.75;;;;;;;34.59;20.18;100415.42;1629242;86;20967;-69
2021/09/10 11:28:15;;;;;;;7.80;5.95;;;;;;;34.68;20.38;100412.57;1622409;86;20998;-75
2021/09/10 11:30:42;;;;;;;6.87;6.15;;;;;;;34.86;20.05;100409.82;1634599;86;20959;-75